createdAt,value
2022-08-25T00:00:14.880Z,21.59
2022-08-25T00:02:49.632Z,21.69
2022-08-25T00:05:27.121Z,21.70
2022-08-25T00:07:56.332Z,21.92
2022-08-25T00:10:23.679Z,21.71
2022-08-25T00:12:50.930Z,21.53
2022-08-25T00:15:18.278Z,21.34
2022-08-25T00:17:45.582Z,21.22
2022-08-25T00:20:12.919Z,21.06
2022-08-25T00:22:40.681Z,21.39
2022-08-25T00:25:09.800Z,21.49
2022-08-25T00:27:37.410Z,21.76
2022-08-25T00:30:06.006Z,21.73
2022-08-25T00:32:33.244Z,21.57
2022-08-25T00:35:00.804Z,21.68
2022-08-25T00:37:28.024Z,21.79
2022-08-25T00:39:57.137Z,21.83
2022-08-25T00:42:25.965Z,21.80
2022-08-25T00:44:53.840Z,21.80
2022-08-25T00:47:21.105Z,21.69
2022-08-25T00:49:54.196Z,21.62
2022-08-25T00:52:23.329Z,21.72
2022-08-25T00:54:53.299Z,21.86
2022-08-25T00:57:33.993Z,21.94
2022-08-25T01:00:12.896Z,22.10
2022-08-25T01:02:40.457Z,21.86
2022-08-25T01:05:08.670Z,21.75
2022-08-25T01:07:37.230Z,21.55
2022-08-25T01:10:07.908Z,21.36
2022-08-25T01:12:37.372Z,21.22
2022-08-25T01:15:07.598Z,21.26
2022-08-25T01:17:39.340Z,21.21
2022-08-25T01:20:07.072Z,21.15
2022-08-25T01:22:34.340Z,21.36
2022-08-25T01:25:07.727Z,21.27
2022-08-25T01:27:34.973Z,21.19
2022-08-25T01:30:02.584Z,21.07
2022-08-25T01:32:34.862Z,21.13
2022-08-25T01:35:02.228Z,21.31
2022-08-25T01:37:29.472Z,21.50
2022-08-25T01:39:56.744Z,21.77
2022-08-25T01:42:37.628Z,21.67
2022-08-25T01:45:05.688Z,21.37
2022-08-25T01:47:33.623Z,21.15
2022-08-25T01:50:00.825Z,21.14
2022-08-25T01:52:46.759Z,21.23
2022-08-25T01:55:14.066Z,21.10
2022-08-25T01:57:41.317Z,21.10
2022-08-25T02:00:12.235Z,21.01
2022-08-25T02:02:42.617Z,20.70
2022-08-25T02:05:14.036Z,20.65
2022-08-25T02:07:42.451Z,20.83
2022-08-25T02:10:12.815Z,20.68
2022-08-25T02:12:40.076Z,20.73
2022-08-25T02:15:09.273Z,20.74
2022-08-25T02:17:36.830Z,20.75
2022-08-25T02:20:07.227Z,20.87
2022-08-25T02:22:34.445Z,20.77
2022-08-25T02:25:01.711Z,20.88
2022-08-25T02:27:29.435Z,20.79
2022-08-25T02:29:56.813Z,20.77
2022-08-25T02:32:24.150Z,20.74
2022-08-25T02:34:51.449Z,20.71
2022-08-25T02:37:18.748Z,20.59
2022-08-25T02:39:46.186Z,20.58
2022-08-25T02:42:13.543Z,20.74
2022-08-25T02:44:41.169Z,20.58
2022-08-25T02:47:08.439Z,20.47
2022-08-25T02:49:35.701Z,20.54
2022-08-25T02:52:03.280Z,20.64
2022-08-25T02:54:30.977Z,20.72
2022-08-25T02:56:58.264Z,20.58
2022-08-25T02:59:25.499Z,20.56
2022-08-25T03:01:52.858Z,20.55
2022-08-25T03:04:20.111Z,20.59
2022-08-25T03:06:47.689Z,20.62
2022-08-25T03:09:15.735Z,20.68
2022-08-25T03:11:42.985Z,20.69
2022-08-25T03:14:11.072Z,20.78
2022-08-25T03:16:38.593Z,20.72
2022-08-25T03:19:06.452Z,20.59
2022-08-25T03:21:33.929Z,20.66
2022-08-25T03:24:01.171Z,20.72
2022-08-25T03:26:47.240Z,20.63
2022-08-25T03:29:15.395Z,20.54
2022-08-25T03:31:44.762Z,20.55
2022-08-25T03:34:14.401Z,20.76
2022-08-25T03:36:41.611Z,20.65
2022-08-25T03:39:09.531Z,20.62
2022-08-25T03:41:37.085Z,20.64
2022-08-25T03:44:06.356Z,20.66
2022-08-25T03:46:43.229Z,20.54
2022-08-25T03:49:13.855Z,20.38
2022-08-25T03:51:47.439Z,20.23
2022-08-25T03:54:22.067Z,20.25
2022-08-25T03:56:49.448Z,20.31
2022-08-25T03:59:17.431Z,20.37
2022-08-25T04:01:46.192Z,20.23
2022-08-25T04:04:15.307Z,20.15
2022-08-25T04:06:44.059Z,20.06
2022-08-25T04:09:12.531Z,19.95
2022-08-25T04:11:40.213Z,20.01
2022-08-25T04:14:09.859Z,20.09
2022-08-25T04:16:43.693Z,20.23
2022-08-25T04:19:11.700Z,20.22
2022-08-25T04:21:40.568Z,20.14
2022-08-25T04:24:09.775Z,20.15
2022-08-25T04:26:41.324Z,20.15
2022-08-25T04:29:10.425Z,20.10
2022-08-25T04:31:40.888Z,20.17
2022-08-25T04:34:28.811Z,20.12
2022-08-25T04:36:56.382Z,20.12
2022-08-25T04:39:23.670Z,20.26
2022-08-25T04:41:52.144Z,20.04
2022-08-25T04:44:19.435Z,20.12
2022-08-25T04:46:46.785Z,20.08
2022-08-25T04:49:14.021Z,20.11
2022-08-25T04:51:41.748Z,19.87
2022-08-25T04:54:12.828Z,19.75
2022-08-25T04:56:41.305Z,19.78
2022-08-25T04:59:12.560Z,19.91
2022-08-25T05:01:41.767Z,19.97
2022-08-25T05:04:14.626Z,20.18
2022-08-25T05:06:55.763Z,20.55
2022-08-25T05:09:23.127Z,20.67
2022-08-25T05:11:50.399Z,20.29
2022-08-25T05:14:21.621Z,19.91
2022-08-25T05:16:53.870Z,19.88
2022-08-25T05:19:21.183Z,19.93
2022-08-25T05:21:48.396Z,20.00
2022-08-25T05:24:15.811Z,20.40
2022-08-25T05:26:44.335Z,20.79
2022-08-25T05:29:11.806Z,20.93
2022-08-25T05:31:43.214Z,20.73
2022-08-25T05:34:12.458Z,20.29
2022-08-25T05:36:43.379Z,20.39
2022-08-25T05:39:11.106Z,20.60
2022-08-25T05:41:38.844Z,20.66
2022-08-25T05:44:06.545Z,20.87
2022-08-25T05:46:33.958Z,20.93
2022-08-25T05:49:01.947Z,20.87
2022-08-25T05:51:29.233Z,20.80
2022-08-25T05:53:56.477Z,20.83
2022-08-25T05:56:23.787Z,20.97
2022-08-25T05:58:51.212Z,21.11
2022-08-25T06:01:40.751Z,20.82
2022-08-25T06:04:10.975Z,21.06
2022-08-25T06:06:39.283Z,21.13
2022-08-25T06:09:08.698Z,21.35
2022-08-25T06:11:39.880Z,21.14
2022-08-25T06:14:09.069Z,21.21
2022-08-25T06:16:36.739Z,20.97
2022-08-25T06:19:04.531Z,21.08
2022-08-25T06:21:31.906Z,21.08
2022-08-25T06:23:59.141Z,21.32
2022-08-25T06:26:26.911Z,21.65
2022-08-25T06:28:54.241Z,21.67
2022-08-25T06:31:22.428Z,21.67
2022-08-25T06:33:50.655Z,21.83
2022-08-25T06:36:19.256Z,21.92
2022-08-25T06:38:47.515Z,21.99
2022-08-25T06:41:16.517Z,22.08
2022-08-25T06:43:48.984Z,22.05
2022-08-25T06:46:23.077Z,22.19
2022-08-25T06:49:04.883Z,22.21
2022-08-25T06:51:32.359Z,22.25
2022-08-25T06:54:00.516Z,22.31
2022-08-25T06:56:27.735Z,22.24
2022-08-25T06:58:55.242Z,22.27
2022-08-25T07:01:26.824Z,22.48
2022-08-25T07:03:57.457Z,22.57
2022-08-25T07:06:28.889Z,22.66
2022-08-25T07:08:56.160Z,22.75
2022-08-25T07:11:24.214Z,22.78
2022-08-25T07:13:51.556Z,22.85
2022-08-25T07:16:20.701Z,22.92
2022-08-25T07:18:49.126Z,23.03
2022-08-25T07:21:20.639Z,23.14
2022-08-25T07:23:52.378Z,23.36
2022-08-25T07:26:39.328Z,23.44
2022-08-25T07:29:15.209Z,23.36
2022-08-25T07:31:43.390Z,23.40
2022-08-25T07:34:29.640Z,23.41
2022-08-25T07:36:57.770Z,23.51
2022-08-25T07:39:26.341Z,23.59
2022-08-25T07:41:54.064Z,23.65
2022-08-25T07:44:28.646Z,23.80
2022-08-25T07:46:57.510Z,23.89
2022-08-25T07:49:26.948Z,23.96
2022-08-25T07:52:06.658Z,24.12
2022-08-25T07:54:37.940Z,24.18
2022-08-25T07:57:08.429Z,24.17
2022-08-25T07:59:40.644Z,24.31
2022-08-25T08:02:17.844Z,24.41
2022-08-25T08:04:51.351Z,24.45
2022-08-25T08:07:42.337Z,24.56
2022-08-25T08:13:02.837Z,24.80
2022-08-25T08:15:30.446Z,24.82
2022-08-25T08:18:00.408Z,24.94
2022-08-25T08:20:43.062Z,25.07
2022-08-25T08:23:12.614Z,25.15
2022-08-25T08:26:11.681Z,25.17
2022-08-25T08:28:38.927Z,25.28
2022-08-25T08:31:06.652Z,25.41
2022-08-25T08:36:52.779Z,25.51
2022-08-25T08:39:47.075Z,25.51
2022-08-25T08:42:46.755Z,25.57
2022-08-25T08:46:22.360Z,25.72
2022-08-25T08:50:22.447Z,25.83
2022-08-25T08:56:58.299Z,25.97
2022-08-25T09:00:07.797Z,26.05
2022-08-25T09:03:19.621Z,26.13
2022-08-25T09:06:48.189Z,26.23
2022-08-25T09:09:52.323Z,26.00
2022-08-25T09:13:11.840Z,26.10
2022-08-25T09:17:13.466Z,26.37
2022-08-25T09:20:18.401Z,26.37
2022-08-25T09:22:52.401Z,26.45
2022-08-25T09:25:56.431Z,26.57
2022-08-25T09:28:43.115Z,26.64
2022-08-25T09:31:24.347Z,26.67
2022-08-25T09:33:57.292Z,26.65
2022-08-25T09:36:25.643Z,26.73
2022-08-25T09:38:53.045Z,26.73
2022-08-25T09:41:41.965Z,26.83
2022-08-25T09:44:26.037Z,26.88
2022-08-25T09:47:13.486Z,26.93
2022-08-25T09:49:43.947Z,26.96
2022-08-25T09:52:20.944Z,27.04
2022-08-25T09:54:50.239Z,27.04
2022-08-25T09:57:44.018Z,27.12
2022-08-25T10:04:29.157Z,27.24
2022-08-25T10:14:44.359Z,27.41
2022-08-25T10:17:16.912Z,27.48
2022-08-25T10:19:44.405Z,27.51
2022-08-25T10:22:24.357Z,27.75
2022-08-25T10:24:52.644Z,27.94
2022-08-25T10:28:01.643Z,27.84
2022-08-25T10:30:40.599Z,27.86
2022-08-25T10:34:08.518Z,27.99
2022-08-25T10:41:18.671Z,28.11
2022-08-25T10:44:31.734Z,28.19
2022-08-25T10:47:26.965Z,28.22
2022-08-25T10:50:02.963Z,28.14
2022-08-25T10:52:49.624Z,28.26
2022-08-25T10:55:27.943Z,28.34
2022-08-25T10:58:01.211Z,28.31
2022-08-25T11:00:38.465Z,28.31
2022-08-25T11:03:35.251Z,28.29
2022-08-25T11:06:12.391Z,28.20
2022-08-25T11:08:43.029Z,28.24
2022-08-25T11:11:21.752Z,28.22
2022-08-25T11:13:59.006Z,28.05
2022-08-25T11:17:14.951Z,28.16
2022-08-25T11:20:54.244Z,28.07
2022-08-25T11:24:42.332Z,28.21
2022-08-25T11:27:30.543Z,28.40
2022-08-25T11:30:13.740Z,28.18
2022-08-25T11:32:45.748Z,28.14
2022-08-25T11:35:18.540Z,28.14
2022-08-25T11:38:22.336Z,28.25
2022-08-25T11:40:58.092Z,28.25
2022-08-25T11:44:10.412Z,28.28
2022-08-25T11:46:56.157Z,28.70
2022-08-25T11:50:14.512Z,28.97
2022-08-25T11:52:47.031Z,28.93
2022-08-25T11:55:44.260Z,28.88
2022-08-25T11:58:44.825Z,29.06
2022-08-25T12:01:32.564Z,29.03
2022-08-25T12:04:14.877Z,29.06
2022-08-25T12:07:07.227Z,29.16
2022-08-25T12:09:51.480Z,28.98
2022-08-25T12:12:31.707Z,28.63
2022-08-25T12:15:24.964Z,28.57
2022-08-25T12:18:11.402Z,28.78
2022-08-25T12:20:53.770Z,29.00
2022-08-25T12:23:33.980Z,28.90
2022-08-25T12:26:33.158Z,28.76
2022-08-25T12:29:23.663Z,28.73
2022-08-25T12:31:59.224Z,28.64
2022-08-25T12:34:53.990Z,28.53
2022-08-25T12:37:24.397Z,28.51
2022-08-25T12:39:51.933Z,28.85
2022-08-25T12:42:37.837Z,28.52
2022-08-25T12:45:08.614Z,28.46
2022-08-25T12:47:38.432Z,28.47
2022-08-25T12:50:38.647Z,28.45
2022-08-25T12:53:20.069Z,28.63
2022-08-25T12:55:52.634Z,28.75
2022-08-25T12:58:19.916Z,28.85
2022-08-25T13:01:36.105Z,28.67
2022-08-25T13:04:41.498Z,29.11
2022-08-25T13:07:13.160Z,28.87
2022-08-25T13:10:23.734Z,29.02
2022-08-25T13:13:09.137Z,29.69
2022-08-25T13:15:41.789Z,29.55
2022-08-25T13:18:30.907Z,29.38
2022-08-25T13:21:17.709Z,29.36
2022-08-25T13:23:54.316Z,29.92
2022-08-25T13:26:37.588Z,29.58
2022-08-25T13:29:20.752Z,29.37
2022-08-25T13:32:09.287Z,29.20
2022-08-25T13:34:42.900Z,29.19
2022-08-25T13:37:30.259Z,29.35
2022-08-25T13:40:08.075Z,29.40
2022-08-25T13:46:04.666Z,29.58
2022-08-25T13:48:39.156Z,29.81
2022-08-25T13:51:10.896Z,29.86
2022-08-25T13:53:38.814Z,29.78
2022-08-25T13:56:07.222Z,29.80
2022-08-25T13:58:44.616Z,29.66
2022-08-25T14:01:22.665Z,29.69
2022-08-25T14:04:23.058Z,30.34
2022-08-25T14:07:07.319Z,30.44
2022-08-25T14:09:48.945Z,30.59
2022-08-25T14:12:49.703Z,30.62
2022-08-25T14:15:17.256Z,30.65
2022-08-25T14:18:01.007Z,30.34
2022-08-25T14:20:31.313Z,30.26
2022-08-25T14:23:16.181Z,30.17
2022-08-25T14:25:48.938Z,30.21
2022-08-25T14:28:20.715Z,30.10
2022-08-25T14:31:00.951Z,30.29
2022-08-25T14:33:33.442Z,30.39
2022-08-25T14:36:04.692Z,31.06
2022-08-25T14:38:33.718Z,30.70
2022-08-25T14:41:01.707Z,30.82
2022-08-25T14:43:31.742Z,30.64
2022-08-25T14:46:03.509Z,30.68
2022-08-25T14:48:44.147Z,30.53
2022-08-25T14:51:14.343Z,30.57
2022-08-25T14:53:43.528Z,30.77
2022-08-25T14:56:11.261Z,30.88
2022-08-25T14:58:50.830Z,31.14
2022-08-25T15:01:29.148Z,30.94
2022-08-25T15:04:10.543Z,30.75
2022-08-25T15:06:43.599Z,30.74
2022-08-25T15:09:16.164Z,30.75
2022-08-25T15:11:50.725Z,30.83
2022-08-25T15:14:28.828Z,30.92
2022-08-25T15:17:02.507Z,30.85
2022-08-25T15:19:30.478Z,30.99
2022-08-25T15:21:59.387Z,31.19
2022-08-25T15:24:28.231Z,31.42
2022-08-25T15:27:01.165Z,31.48
2022-08-25T15:29:30.677Z,31.97
2022-08-25T15:32:00.310Z,32.24
2022-08-25T15:34:28.522Z,32.26
2022-08-25T15:36:58.375Z,32.33
2022-08-25T15:39:26.839Z,32.49
2022-08-25T15:41:54.159Z,32.64
2022-08-25T15:44:24.103Z,32.56
2022-08-25T15:46:53.540Z,32.62
2022-08-25T15:49:24.081Z,32.84
2022-08-25T15:51:53.308Z,32.87
2022-08-25T15:54:23.588Z,32.28
2022-08-25T15:56:56.620Z,31.63
2022-08-25T15:59:25.342Z,31.27
2022-08-25T16:01:55.704Z,30.96
2022-08-25T16:04:25.065Z,30.71
2022-08-25T16:06:52.443Z,30.32
2022-08-25T16:09:23.012Z,30.29
2022-08-25T16:11:56.643Z,30.31
2022-08-25T16:14:25.213Z,30.26
2022-08-25T16:16:58.540Z,30.22
2022-08-25T16:19:28.612Z,30.11
2022-08-25T16:21:56.115Z,29.83
2022-08-25T16:24:23.754Z,29.80
2022-08-25T16:26:52.009Z,29.82
2022-08-25T16:29:20.144Z,29.62
2022-08-25T16:31:53.435Z,29.65
2022-08-25T16:34:24.515Z,29.61
2022-08-25T16:36:55.749Z,29.49
2022-08-25T16:39:23.910Z,29.39
2022-08-25T16:41:52.167Z,29.39
2022-08-25T16:44:22.367Z,29.40
2022-08-25T16:46:54.394Z,29.44
2022-08-25T16:49:24.494Z,29.47
2022-08-25T16:51:56.660Z,29.39
2022-08-25T16:54:45.187Z,29.29
2022-08-25T16:57:13.702Z,29.39
2022-08-25T16:59:42.495Z,29.34
2022-08-25T17:02:11.568Z,29.29
2022-08-25T17:04:40.696Z,29.30
2022-08-25T17:07:08.116Z,29.29
2022-08-25T17:09:36.100Z,29.28
2022-08-25T17:12:05.013Z,29.24
2022-08-25T17:14:32.931Z,29.24
2022-08-25T17:17:00.633Z,29.19
2022-08-25T17:19:28.230Z,29.21
2022-08-25T17:21:55.558Z,29.22
2022-08-25T17:24:29.695Z,29.17
2022-08-25T17:26:59.969Z,29.11
2022-08-25T17:29:29.012Z,29.06
2022-08-25T17:31:56.279Z,29.05
2022-08-25T17:34:24.124Z,28.99
2022-08-25T17:36:53.176Z,28.96
2022-08-25T17:39:22.325Z,28.94
2022-08-25T17:41:50.782Z,28.92
2022-08-25T17:44:19.416Z,28.90
2022-08-25T17:46:48.041Z,28.87
2022-08-25T17:49:17.311Z,28.86
2022-08-25T17:51:45.374Z,28.83
2022-08-25T17:54:13.242Z,28.80
2022-08-25T17:56:41.070Z,28.77
2022-08-25T17:59:08.741Z,28.70
2022-08-25T18:01:40.556Z,28.69
2022-08-25T18:04:16.959Z,28.53
2022-08-25T18:06:46.747Z,28.52
2022-08-25T18:09:14.949Z,28.44
2022-08-25T18:11:42.625Z,28.41
2022-08-25T18:14:11.420Z,28.33
2022-08-25T18:16:38.958Z,28.35
2022-08-25T18:19:09.839Z,28.31
2022-08-25T18:21:38.680Z,28.31
2022-08-25T18:24:07.355Z,28.27
2022-08-25T18:26:35.726Z,28.24
2022-08-25T18:29:03.678Z,28.25
2022-08-25T18:31:31.394Z,28.25
2022-08-25T18:33:59.556Z,28.16
2022-08-25T18:36:26.840Z,28.08
2022-08-25T18:39:13.596Z,28.08
2022-08-25T18:41:42.741Z,28.00
2022-08-25T18:44:12.389Z,27.97
2022-08-25T18:46:43.106Z,27.88
2022-08-25T18:49:15.936Z,27.72
2022-08-25T18:51:44.961Z,27.50
2022-08-25T18:54:22.419Z,27.36
2022-08-25T18:56:53.259Z,27.24
2022-08-25T18:59:23.534Z,27.13
2022-08-25T19:01:53.258Z,27.04
2022-08-25T19:04:28.438Z,27.04
2022-08-25T19:07:00.715Z,27.06
2022-08-25T19:09:27.972Z,27.04
2022-08-25T19:11:55.848Z,27.07
2022-08-25T19:14:23.328Z,27.12
2022-08-25T19:16:54.549Z,27.22
2022-08-25T19:19:23.710Z,27.27
2022-08-25T19:21:51.680Z,27.33
2022-08-25T19:24:19.836Z,27.38
2022-08-25T19:26:49.600Z,27.42
2022-08-25T19:29:19.870Z,27.44
2022-08-25T19:31:48.197Z,27.46
2022-08-25T19:34:21.240Z,27.39
2022-08-25T19:36:48.900Z,27.40
2022-08-25T19:39:16.817Z,27.39
2022-08-25T19:41:46.333Z,27.35
2022-08-25T19:44:14.473Z,27.33
2022-08-25T19:46:43.498Z,27.27
2022-08-25T19:49:14.322Z,27.10
2022-08-25T19:51:46.323Z,27.04
2022-08-25T19:54:18.200Z,26.98
2022-08-25T19:56:54.987Z,26.96
2022-08-25T19:59:26.700Z,26.99
2022-08-25T20:02:02.604Z,27.01
2022-08-25T20:04:29.865Z,26.97
2022-08-25T20:06:57.167Z,26.99
2022-08-25T20:09:39.556Z,27.04
2022-08-25T20:12:11.725Z,27.05
2022-08-25T20:14:39.268Z,27.05
2022-08-25T20:17:14.486Z,27.04
2022-08-25T20:19:57.038Z,27.03
2022-08-25T20:22:27.138Z,27.02
2022-08-25T20:24:57.981Z,26.98
2022-08-25T20:27:50.704Z,26.98
2022-08-25T20:30:22.221Z,26.91
2022-08-25T20:32:50.827Z,26.91
2022-08-25T20:35:19.228Z,26.85
2022-08-25T20:37:47.418Z,26.87
2022-08-25T20:40:18.745Z,26.90
2022-08-25T20:42:54.084Z,26.90
2022-08-25T20:45:21.950Z,26.90
2022-08-25T20:47:50.232Z,26.89
2022-08-25T20:50:19.096Z,26.87
2022-08-25T20:52:46.358Z,26.85
2022-08-25T20:55:17.670Z,26.79
2022-08-25T20:57:46.812Z,26.74
2022-08-25T21:00:16.531Z,26.70
2022-08-25T21:02:46.229Z,26.70
2022-08-25T21:05:14.061Z,26.75
2022-08-25T21:07:41.882Z,26.79
2022-08-25T21:10:14.419Z,26.81
2022-08-25T21:12:42.627Z,26.79
2022-08-25T21:15:11.465Z,26.72
2022-08-25T21:17:39.313Z,26.62
2022-08-25T21:20:08.745Z,26.58
2022-08-25T21:22:37.861Z,26.50
2022-08-25T21:25:05.691Z,26.41
2022-08-25T21:27:33.927Z,26.39
2022-08-25T21:30:01.385Z,26.21
2022-08-25T21:32:28.603Z,26.15
2022-08-25T21:34:56.787Z,25.92
2022-08-25T21:37:25.478Z,25.43
2022-08-25T21:39:53.215Z,25.00
2022-08-25T21:42:23.108Z,24.94
2022-08-25T21:44:51.066Z,24.73
2022-08-25T21:47:21.040Z,24.47
2022-08-25T21:49:49.901Z,24.18
2022-08-25T21:52:18.153Z,24.14
2022-08-25T21:54:45.755Z,24.07
2022-08-25T21:57:12.973Z,24.13
2022-08-25T21:59:41.356Z,24.10
2022-08-25T22:02:13.287Z,24.05
2022-08-25T22:04:42.018Z,24.02
2022-08-25T22:07:11.047Z,23.98
2022-08-25T22:09:40.015Z,24.04
2022-08-25T22:12:08.325Z,24.00
2022-08-25T22:14:36.620Z,24.05
2022-08-25T22:17:05.491Z,24.24
2022-08-25T22:19:36.275Z,24.43
2022-08-25T22:22:04.259Z,24.59
2022-08-25T22:24:31.520Z,24.80
2022-08-25T22:26:58.804Z,24.86
2022-08-25T22:29:27.888Z,24.80
2022-08-25T22:32:00.947Z,24.80
2022-08-25T22:34:34.308Z,24.96
2022-08-25T22:37:03.758Z,25.16
2022-08-25T22:39:34.485Z,25.39
2022-08-25T22:42:03.222Z,25.52
2022-08-25T22:44:31.196Z,25.51
2022-08-25T22:46:58.510Z,25.28
2022-08-25T22:49:29.215Z,25.16
2022-08-25T22:51:57.642Z,24.91
2022-08-25T22:54:25.597Z,24.38
2022-08-25T22:56:53.358Z,24.14
2022-08-25T22:59:22.451Z,23.99
2022-08-25T23:01:52.608Z,23.87
2022-08-25T23:04:22.147Z,23.81
2022-08-25T23:06:50.175Z,23.63
2022-08-25T23:09:17.418Z,23.83
2022-08-25T23:11:44.746Z,23.87
2022-08-25T23:14:12.833Z,24.00
2022-08-25T23:16:42.158Z,23.80
2022-08-25T23:19:11.070Z,23.84
2022-08-25T23:22:01.345Z,24.07
2022-08-25T23:24:30.639Z,24.39
2022-08-25T23:26:59.413Z,24.58
2022-08-25T23:29:27.577Z,24.71
2022-08-25T23:31:54.946Z,24.68
2022-08-25T23:34:22.979Z,24.69
2022-08-25T23:36:50.354Z,24.62
2022-08-25T23:39:17.715Z,24.46
2022-08-25T23:41:45.019Z,24.30
2022-08-25T23:44:17.508Z,23.70
2022-08-25T23:46:47.378Z,23.33
2022-08-25T23:49:18.631Z,23.41
2022-08-25T23:51:48.669Z,23.38
2022-08-25T23:54:18.334Z,23.18
2022-08-25T23:56:51.802Z,23.01
2022-08-25T23:59:24.817Z,23.06
